Santo Antonio do Taua, Brazil
Current Conditions -  °F | °C
As of 2:00 AM on Saturday 20 Dec 2014 (Local Time) from SBBE Reporting Station
Clear Clear  
Wind Chill: 77°   Ceiling: Unl
Heat Index: 78°   Visibility: 6mi
Dew Point: 73°   Wind: 8mph
Humidity: 89%   Direction: 90°E
Pressure: 29.83"   Gusts: NA
Location:  1.15°S, 48.13°W
Report Text: SBBE 200500Z 09007KT CAVOK 25/23 Q1010
Loading
Personal Weather Stations






























Interactive Weather Map New forecast layout! Learn more

10-Day Weather Forecast

Advertisements
Track Severe Weather on mobile